Time;durP1;ratioP1;P1;durP2;ratioP2;P2;SDS_P1;SDS_P2;PMS_P1;PMS_P2;Temp;Humidity;BMP_temperature;BMP_pressure;BME280_temperature;BME280_humidity;BME280_pressure;Samples;Min_cycle;Max_cycle;Signal;HPM_P1;HPM_P2
2022/11/26 00:01:44;;;;;;;154.10;15.90;;;5.20;99.90;;;;;;5043891;28;20069;-66
2022/11/26 00:04:10;;;;;;;76.47;13.90;;;5.20;99.90;;;;;;5053524;28;20402;-65
2022/11/26 00:06:41;;;;;;;74.53;14.88;;;5.10;99.90;;;;;;5037389;28;20411;-66
2022/11/26 00:09:12;;;;;;;;;;;5.10;99.90;;;;;;5047514;28;20042;-66
2022/11/26 00:11:39;;;;;;;87.65;12.60;;;5.10;99.90;;;;;;5050590;28;20011;-66
2022/11/26 00:14:12;;;;;;;136.00;15.32;;;5.10;99.90;;;;;;5043281;28;20514;-65
2022/11/26 00:16:38;;;;;;;181.95;15.68;;;5.10;99.90;;;;;;5051214;28;20167;-66
2022/11/26 00:19:04;;;;;;;71.75;14.85;;;5.10;99.90;;;;;;5046235;28;20116;-66
2022/11/26 00:21:32;;;;;;;97.43;15.50;;;5.10;99.90;;;;;;5052734;28;20493;-66
2022/11/26 00:23:59;;;;;;;77.63;15.13;;;5.10;99.90;;;;;;5045381;28;20513;-64
2022/11/26 00:26:25;;;;;;;59.20;14.77;;;5.10;99.90;;;;;;5044377;28;20108;-65
2022/11/26 00:28:54;;;;;;;98.72;16.83;;;5.10;99.90;;;;;;5052141;28;20561;-66
2022/11/26 00:31:20;;;;;;;63.72;15.48;;;5.10;99.90;;;;;;5040395;28;20490;-66
2022/11/26 00:33:45;;;;;;;89.88;16.35;;;5.10;99.90;;;;;;5044011;28;20128;-66
2022/11/26 00:36:27;;;;;;;67.93;16.00;;;5.10;99.90;;;;;;5052838;28;20037;-66
2022/11/26 00:39:01;;;;;;;133.27;17.20;;;5.10;99.90;;;;;;5048148;28;20056;-66
2022/11/26 00:41:31;;;;;;;51.53;15.45;;;5.10;99.90;;;;;;5043260;28;20510;-66
2022/11/26 00:43:57;;;;;;;83.45;16.23;;;5.10;99.90;;;;;;5044688;28;20047;-66
2022/11/26 00:46:23;;;;;;;46.72;15.88;;;5.10;99.90;;;;;;5047122;28;20038;-66
2022/11/26 00:48:49;;;;;;;96.03;16.40;;;5.10;99.90;;;;;;5039786;28;20059;-66
2022/11/26 00:51:22;;;;;;;97.32;18.95;;;5.00;99.90;;;;;;5042452;28;20044;-66
2022/11/26 00:53:48;;;;;;;120.57;17.50;;;5.00;99.90;;;;;;5052132;28;20063;-66
2022/11/26 00:56:17;;;;;;;89.60;18.23;;;5.00;99.90;;;;;;5044822;28;20037;-66
2022/11/26 00:58:44;;;;;;;64.63;17.17;;;5.00;99.90;;;;;;5047451;28;20043;-66
2022/11/26 01:01:23;;;;;;;79.80;18.27;;;5.00;99.90;;;;;;5045732;28;20584;-66
2022/11/26 01:03:50;;;;;;;87.20;18.27;;;5.00;99.90;;;;;;5041369;28;20033;-66
2022/11/26 01:06:18;;;;;;;65.60;18.42;;;5.00;99.90;;;;;;5038682;28;20037;-65
2022/11/26 01:08:45;;;;;;;50.50;17.73;;;5.00;99.90;;;;;;5043554;28;20037;-65
2022/11/26 01:11:16;;;;;;;68.68;19.50;;;5.00;99.90;;;;;;5051952;28;20044;-66
2022/11/26 01:13:42;;;;;;;;;;;5.00;99.90;;;;;;5041767;28;20041;-66
2022/11/26 01:16:24;;;;;;;66.28;18.60;;;5.00;99.90;;;;;;5044113;28;19962;-66
2022/11/26 01:18:53;;;;;;;115.53;19.88;;;5.00;99.90;;;;;;5051199;28;20045;-65
2022/11/26 01:21:19;;;;;;;116.97;21.40;;;5.00;99.90;;;;;;5040897;28;20044;-64
2022/11/26 01:23:45;;;;;;;111.97;20.35;;;5.00;99.90;;;;;;5043086;28;20503;-66
2022/11/26 01:26:16;;;;;;;108.00;21.88;;;5.00;99.90;;;;;;5051778;28;20478;-65
2022/11/26 01:28:42;;;;;;;146.55;21.67;;;5.00;99.90;;;;;;5051959;28;20558;-66
2022/11/26 01:31:31;;;;;;;124.93;24.13;;;5.00;99.90;;;;;;5041656;28;20051;-66
2022/11/26 01:33:57;;;;;;;146.48;23.02;;;4.90;99.90;;;;;;5039726;28;20391;-65
2022/11/26 01:36:32;;;;;;;102.57;20.20;;;4.90;99.90;;;;;;5029707;28;20548;-66
2022/11/26 01:39:16;;;;;;;54.15;18.88;;;4.90;99.90;;;;;;5040133;28;20037;-65
2022/11/26 01:41:46;;;;;;;92.07;20.27;;;4.90;99.90;;;;;;5032300;28;20384;-64
2022/11/26 01:44:21;;;;;;;325.95;26.00;;;4.90;99.90;;;;;;5031771;28;20041;-64
2022/11/26 01:46:48;;;;;;;227.60;21.42;;;4.90;99.90;;;;;;5031253;28;20047;-65
2022/11/26 01:49:18;;;;;;;372.58;25.75;;;4.80;99.90;;;;;;5045719;28;20037;-65
2022/11/26 01:51:45;;;;;;;100.35;20.65;;;4.70;99.90;;;;;;5040584;28;20029;-65
2022/11/26 01:54:11;;;;;;;179.02;21.42;;;4.70;99.90;;;;;;5037482;28;20049;-65
2022/11/26 01:56:41;;;;;;;224.07;22.52;;;4.70;99.90;;;;;;5035759;28;20156;-65
2022/11/26 01:59:19;;;;;;;199.40;21.75;;;4.60;99.90;;;;;;5044929;28;20041;-66
2022/11/26 02:01:46;;;;;;;188.98;20.65;;;4.50;99.90;;;;;;5038966;28;20048;-66
2022/11/26 02:04:23;;;;;;;154.45;20.88;;;4.50;99.90;;;;;;5048407;28;20045;-66
2022/11/26 02:06:50;;;;;;;50.63;17.42;;;4.40;99.90;;;;;;5054514;28;20041;-66
2022/11/26 02:09:16;;;;;;;60.95;16.67;;;4.40;99.90;;;;;;5045130;28;20037;-65
2022/11/26 02:11:42;;;;;;;65.03;17.02;;;4.40;99.90;;;;;;5039830;28;20072;-66
2022/11/26 02:14:19;;;;;;;298.50;22.70;;;4.30;99.90;;;;;;5068061;22;20064;-67
2022/11/26 02:17:06;;;;;;;70.03;17.75;;;4.30;99.90;;;;;;5055259;28;20433;-67
2022/11/26 02:20:05;;;;;;;406.88;27.63;;;4.20;99.90;;;;;;5052761;28;20036;-67
2022/11/26 02:22:48;;;;;;;291.48;21.65;;;4.10;99.90;;;;;;5061133;28;20055;-67
2022/11/26 02:25:38;;;;;;;366.55;28.25;;;4.10;99.90;;;;;;5055172;28;20435;-67
2022/11/26 02:28:25;;;;;;;239.18;23.67;;;4.00;99.90;;;;;;5052691;28;20041;-67
2022/11/26 02:31:08;;;;;;;300.48;20.40;;;3.90;99.90;;;;;;5054339;28;20475;-67
2022/11/26 02:33:52;;;;;;;183.30;19.30;;;3.90;99.90;;;;;;5036986;28;20055;-67
2022/11/26 02:36:28;;;;;;;273.85;24.73;;;3.80;99.90;;;;;;5040385;28;20056;-68
2022/11/26 02:38:54;;;;;;;353.13;22.80;;;3.80;99.90;;;;;;5069249;28;20032;-68
2022/11/26 02:41:19;;;;;;;407.92;24.38;;;3.80;99.90;;;;;;5054384;28;20394;-68
2022/11/26 02:43:46;;;;;;;510.38;31.35;;;3.70;99.90;;;;;;5035363;28;20072;-68
2022/11/26 02:46:16;;;;;;;600.15;35.22;;;3.70;99.90;;;;;;5058496;28;20044;-67
2022/11/26 02:48:46;;;;;;;186.50;17.90;;;3.70;99.90;;;;;;5036633;28;20044;-67
2022/11/26 02:51:24;;;;;;;218.65;19.98;;;3.60;99.90;;;;;;5054307;28;20091;-67
2022/11/26 02:53:51;;;;;;;200.48;22.77;;;3.70;99.90;;;;;;5038821;28;20114;-67
2022/11/26 02:56:26;;;;;;;305.33;23.08;;;3.70;99.90;;;;;;5036085;28;20102;-67
2022/11/26 02:58:54;;;;;;;117.15;17.30;;;3.70;99.90;;;;;;5054230;28;20091;-67
2022/11/26 03:01:52;;;;;;;121.43;16.98;;;3.70;99.90;;;;;;5033953;28;20051;-68
2022/11/26 03:04:22;;;;;;;152.70;19.63;;;3.70;99.90;;;;;;5032425;28;20052;-67
2022/11/26 03:06:49;;;;;;;188.35;19.85;;;3.80;99.90;;;;;;5074226;28;20039;-68
2022/11/26 03:09:21;;;;;;;109.18;19.13;;;3.80;99.90;;;;;;5060885;28;20099;-68
2022/11/26 03:11:47;;;;;;;212.10;19.30;;;3.80;99.90;;;;;;5053392;28;20117;-67
2022/11/26 03:14:13;;;;;;;148.18;19.08;;;3.80;99.90;;;;;;5052681;28;20175;-67
2022/11/26 03:16:38;;;;;;;217.40;21.45;;;3.80;99.90;;;;;;5039897;28;20045;-67
2022/11/26 03:19:04;;;;;;;123.43;18.00;;;3.80;99.90;;;;;;5041223;28;20406;-68
2022/11/26 03:21:32;;;;;;;79.75;17.17;;;3.80;99.90;;;;;;5035561;28;20041;-68
2022/11/26 03:23:57;;;;;;;271.20;22.50;;;3.70;99.90;;;;;;5053858;28;20112;-68
2022/11/26 03:26:23;;;;;;;257.38;21.10;;;3.70;99.90;;;;;;5051570;28;20190;-67
2022/11/26 03:28:48;;;;;;;316.35;25.05;;;3.70;99.90;;;;;;5053295;28;20124;-67
2022/11/26 03:31:14;;;;;;;246.45;24.77;;;3.70;99.90;;;;;;5053287;28;20116;-68
2022/11/26 03:33:40;;;;;;;435.50;28.95;;;4.00;99.90;;;;;;5036750;28;20139;-68
2022/11/26 03:36:05;;;;;;;367.13;28.73;;;4.10;99.90;;;;;;5035372;28;20040;-68
2022/11/26 03:38:31;;;;;;;186.13;21.15;;;4.10;99.90;;;;;;5035456;28;20045;-67
2022/11/26 03:40:59;;;;;;;249.93;25.55;;;4.10;99.90;;;;;;5053715;28;20534;-68
2022/11/26 03:43:25;;;;;;;153.80;21.35;;;4.20;99.90;;;;;;5032588;28;20049;-67
2022/11/26 03:45:50;;;;;;;204.10;24.25;;;4.10;99.90;;;;;;5053160;28;20087;-67
2022/11/26 03:48:16;;;;;;;208.57;23.42;;;4.20;99.90;;;;;;5053773;28;20033;-67
2022/11/26 03:50:42;;;;;;;241.80;23.23;;;4.10;99.90;;;;;;5054063;28;20045;-67
2022/11/26 03:53:08;;;;;;;254.18;24.13;;;4.10;99.90;;;;;;5058472;28;20047;-68
2022/11/26 03:55:33;;;;;;;191.07;24.42;;;4.10;99.90;;;;;;5035198;28;20076;-68
2022/11/26 03:57:59;;;;;;;248.02;23.65;;;4.10;99.90;;;;;;5051165;28;20037;-67
2022/11/26 04:00:25;;;;;;;118.68;19.55;;;4.10;99.90;;;;;;5059997;28;20049;-67
2022/11/26 04:02:50;;;;;;;244.07;27.27;;;4.10;99.90;;;;;;5042982;28;20436;-68
2022/11/26 04:05:16;;;;;;;215.68;24.98;;;4.10;99.90;;;;;;5043053;28;20036;-68
2022/11/26 04:07:42;;;;;;;233.52;23.17;;;4.00;99.90;;;;;;5046124;28;20521;-67
2022/11/26 04:10:08;;;;;;;200.85;23.95;;;4.00;99.90;;;;;;5053065;28;20036;-68
2022/11/26 04:12:33;;;;;;;266.25;26.23;;;4.00;99.90;;;;;;5034672;28;20049;-67
2022/11/26 04:14:59;;;;;;;198.80;22.90;;;3.90;99.90;;;;;;5033166;28;20037;-67
2022/11/26 04:17:24;;;;;;;283.55;22.88;;;3.90;99.90;;;;;;5034939;28;20119;-68
2022/11/26 04:19:50;;;;;;;340.33;27.20;;;3.90;99.90;;;;;;5052512;28;20037;-68
2022/11/26 04:22:16;;;;;;;376.08;26.95;;;3.80;99.90;;;;;;5034541;28;20091;-69
2022/11/26 04:24:41;;;;;;;344.95;26.95;;;3.90;99.90;;;;;;5037163;28;20033;-67
2022/11/26 04:27:07;;;;;;;309.02;27.05;;;3.90;99.90;;;;;;5034674;28;20041;-67
2022/11/26 04:29:33;;;;;;;285.20;24.10;;;3.90;99.90;;;;;;5052719;28;20128;-68
2022/11/26 04:31:58;;;;;;;376.67;28.25;;;3.90;99.90;;;;;;5044509;28;20387;-67
2022/11/26 04:34:24;;;;;;;301.00;24.20;;;3.90;99.90;;;;;;5040484;28;20126;-67
2022/11/26 04:36:49;;;;;;;262.77;24.00;;;3.90;99.90;;;;;;5051635;28;20036;-67
2022/11/26 04:39:15;;;;;;;182.98;19.75;;;3.90;99.90;;;;;;5033718;28;20129;-68
2022/11/26 04:41:41;;;;;;;225.95;19.13;;;3.90;99.90;;;;;;5051393;28;20039;-68
2022/11/26 04:44:07;;;;;;;153.50;18.30;;;3.90;99.90;;;;;;5057863;28;20052;-68
2022/11/26 04:46:32;;;;;;;137.15;17.35;;;3.90;99.90;;;;;;5052394;28;20045;-67
2022/11/26 04:48:58;;;;;;;151.20;19.52;;;3.90;99.90;;;;;;5052460;28;20060;-67
2022/11/26 04:51:24;;;;;;;163.02;19.10;;;3.90;99.90;;;;;;5036826;28;20119;-67
2022/11/26 04:53:49;;;;;;;143.13;18.38;;;3.90;99.90;;;;;;5051685;28;20137;-67
2022/11/26 04:56:15;;;;;;;101.22;17.02;;;4.00;99.90;;;;;;5051656;28;20040;-67
2022/11/26 04:58:40;;;;;;;139.02;18.88;;;4.00;99.90;;;;;;5049249;28;20091;-67
2022/11/26 05:01:06;;;;;;;102.28;17.05;;;4.00;99.90;;;;;;5051258;28;20041;-67
2022/11/26 05:03:32;;;;;;;65.90;16.60;;;4.00;99.90;;;;;;5034188;28;20111;-68
2022/11/26 05:05:57;;;;;;;107.40;17.35;;;4.00;99.90;;;;;;5056032;28;20036;-67
2022/11/26 05:08:23;;;;;;;120.90;17.50;;;4.00;99.90;;;;;;5033620;28;20048;-67
2022/11/26 05:10:53;;;;;;;185.48;19.40;;;4.00;99.90;;;;;;5051558;28;20056;-68
2022/11/26 05:13:18;;;;;;;114.18;17.95;;;3.90;99.90;;;;;;5015163;28;20175;-68
2022/11/26 05:15:44;;;;;;;157.07;17.20;;;3.90;99.90;;;;;;5050987;28;20156;-67
2022/11/26 05:18:10;;;;;;;125.63;16.40;;;3.90;99.90;;;;;;5051447;28;20059;-67
2022/11/26 05:20:35;;;;;;;131.80;17.23;;;3.90;99.90;;;;;;5033468;28;20033;-68
2022/11/26 05:23:01;;;;;;;131.30;17.33;;;3.80;99.90;;;;;;5048934;28;20033;-67
2022/11/26 05:25:26;;;;;;;87.80;15.52;;;3.90;99.90;;;;;;5033318;28;20499;-67
2022/11/26 05:27:52;;;;;;;128.18;18.65;;;3.90;99.90;;;;;;5051507;28;20037;-67
2022/11/26 05:30:17;;;;;;;92.50;16.73;;;3.90;99.90;;;;;;5051992;28;20074;-68
2022/11/26 05:32:43;;;;;;;116.15;17.23;;;3.80;99.90;;;;;;5050426;28;20051;-68
2022/11/26 05:35:09;;;;;;;132.65;18.35;;;3.80;99.90;;;;;;5033476;28;20045;-67
2022/11/26 05:37:35;;;;;;;161.88;21.30;;;3.90;99.90;;;;;;5048468;28;20600;-68
2022/11/26 05:40:01;;;;;;;99.40;15.73;;;3.90;99.90;;;;;;5034834;28;20124;-67
2022/11/26 05:42:26;;;;;;;80.25;17.42;;;3.90;99.90;;;;;;5051021;28;20131;-68
2022/11/26 05:44:52;;;;;;;190.18;19.75;;;4.00;99.90;;;;;;5033452;28;20119;-68
2022/11/26 05:47:18;;;;;;;216.68;23.10;;;4.00;99.90;;;;;;5048155;28;20040;-68
2022/11/26 05:49:43;;;;;;;172.93;21.00;;;4.00;99.90;;;;;;5050194;28;20044;-68
2022/11/26 05:52:09;;;;;;;197.85;21.42;;;4.00;99.90;;;;;;5050847;28;20190;-67
2022/11/26 05:54:35;;;;;;;119.47;18.33;;;4.00;99.90;;;;;;5051675;28;20033;-67
2022/11/26 05:57:00;;;;;;;202.60;20.88;;;4.00;99.90;;;;;;5048882;28;20558;-68
2022/11/26 05:59:26;;;;;;;97.05;17.02;;;4.00;99.90;;;;;;5050944;28;20045;-67
2022/11/26 06:01:52;;;;;;;159.57;21.75;;;4.00;99.90;;;;;;5032812;28;20166;-67
2022/11/26 06:04:17;;;;;;;133.35;17.63;;;4.00;99.90;;;;;;5044933;28;20131;-67
2022/11/26 06:06:43;;;;;;;114.03;18.80;;;4.00;99.90;;;;;;5038715;28;20604;-67
2022/11/26 06:09:12;;;;;;;192.88;20.50;;;4.00;99.90;;;;;;5033187;28;20063;-67
2022/11/26 06:11:38;;;;;;;150.27;20.60;;;4.10;99.90;;;;;;5038236;28;20040;-67
2022/11/26 06:14:03;;;;;;;82.15;17.30;;;4.10;99.90;;;;;;5064736;28;20506;-67
2022/11/26 06:16:29;;;;;;;92.10;18.33;;;4.20;99.90;;;;;;5044442;28;20545;-67
2022/11/26 06:18:55;;;;;;;71.00;18.27;;;4.10;99.90;;;;;;5043236;28;20040;-67
2022/11/26 06:21:20;;;;;;;51.13;18.08;;;4.20;99.90;;;;;;5036364;28;20867;-67
2022/11/26 06:23:46;;;;;;;111.32;20.13;;;4.20;99.90;;;;;;5043011;28;20056;-67
2022/11/26 06:26:12;;;;;;;134.32;20.80;;;4.20;99.90;;;;;;5061233;28;20039;-67
2022/11/26 06:28:38;;;;;;;119.68;19.98;;;4.20;99.90;;;;;;5040150;28;20044;-67
2022/11/26 06:31:04;;;;;;;116.20;22.70;;;4.30;99.90;;;;;;5042365;28;20075;-68
2022/11/26 06:33:30;;;;;;;99.63;18.73;;;4.30;99.90;;;;;;5039231;28;20041;-68
2022/11/26 06:36:00;;;;;;;115.75;21.00;;;4.30;99.90;;;;;;5033262;28;20495;-68
2022/11/26 06:38:25;;;;;;;115.88;20.27;;;4.20;99.90;;;;;;5039778;28;20040;-68
2022/11/26 06:41:03;;;;;;;88.70;19.17;;;4.30;99.90;;;;;;5044195;28;20131;-67
2022/11/26 06:43:29;;;;;;;73.93;20.02;;;4.30;99.90;;;;;;5043887;28;20120;-67
2022/11/26 06:45:59;;;;;;;84.90;20.50;;;4.30;99.90;;;;;;5063759;28;20112;-67
2022/11/26 06:48:24;;;;;;;89.05;20.48;;;4.30;99.90;;;;;;5060829;28;20041;-65
2022/11/26 06:50:51;;;;;;;80.63;20.15;;;4.30;99.90;;;;;;5064520;28;20131;-67
2022/11/26 06:53:17;;;;;;;76.90;20.42;;;4.30;99.90;;;;;;5055615;28;20048;-67
2022/11/26 06:55:43;;;;;;;83.78;19.42;;;4.30;99.90;;;;;;5045635;28;20036;-67
2022/11/26 06:58:08;;;;;;;85.15;20.33;;;4.20;99.90;;;;;;5067906;28;20123;-66
2022/11/26 07:00:34;;;;;;;86.60;21.40;;;4.20;99.90;;;;;;5063333;28;20040;-65
2022/11/26 07:02:59;;;;;;;71.05;20.30;;;4.20;99.90;;;;;;5040861;28;20040;-68
2022/11/26 07:05:25;;;;;;;86.68;20.58;;;4.20;99.90;;;;;;5049341;28;20040;-68
2022/11/26 07:07:51;;;;;;;63.22;21.00;;;4.30;99.90;;;;;;5063531;28;20037;-68
2022/11/26 07:10:17;;;;;;;89.30;21.25;;;4.30;99.90;;;;;;5061049;28;20080;-69
2022/11/26 07:12:42;;;;;;;102.43;21.65;;;4.30;99.90;;;;;;5065732;28;20059;-68
2022/11/26 07:15:08;;;;;;;107.65;23.00;;;4.40;99.90;;;;;;5073774;28;20130;-68
2022/11/26 07:17:34;;;;;;;140.38;22.83;;;4.40;99.90;;;;;;5074452;28;20040;-69
2022/11/26 07:20:00;;;;;;;105.15;22.20;;;4.40;99.90;;;;;;5039172;28;20033;-68
2022/11/26 07:22:25;;;;;;;109.88;23.52;;;4.50;99.90;;;;;;5053039;28;20033;-67
2022/11/26 07:24:51;;;;;;;95.93;23.42;;;4.50;99.90;;;;;;5047262;28;20491;-70
2022/11/26 07:27:16;;;;;;;103.90;24.13;;;4.60;99.90;;;;;;5042126;28;20052;-68
2022/11/26 07:29:42;;;;;;;111.55;26.88;;;4.60;99.90;;;;;;5052645;28;20049;-68
2022/11/26 07:32:07;;;;;;;116.68;26.77;;;4.60;99.90;;;;;;5052934;28;20052;-68
2022/11/26 07:34:33;;;;;;;112.63;24.17;;;4.70;99.90;;;;;;5033610;28;20047;-67
2022/11/26 07:36:59;;;;;;;78.25;22.85;;;4.70;99.90;;;;;;5042238;28;20036;-69
2022/11/26 07:39:25;;;;;;;82.30;23.50;;;4.70;99.90;;;;;;5035669;28;20472;-68
2022/11/26 07:41:50;;;;;;;102.90;25.45;;;4.70;99.90;;;;;;5050590;28;20119;-70
2022/11/26 07:44:16;;;;;;;104.95;24.77;;;4.70;99.90;;;;;;5059820;28;20040;-69
2022/11/26 07:46:42;;;;;;;82.15;23.45;;;4.70;99.90;;;;;;5039668;28;20045;-68
2022/11/26 07:49:07;;;;;;;83.50;24.08;;;4.70;99.90;;;;;;5035298;28;20452;-69
2022/11/26 07:51:35;;;;;;;104.80;26.92;;;4.80;99.90;;;;;;5051829;28;20121;-70
2022/11/26 07:54:04;;;;;;;95.57;26.70;;;4.80;99.90;;;;;;5054509;28;20137;-70
2022/11/26 07:56:30;;;;;;;91.43;24.30;;;4.80;99.90;;;;;;5041417;28;20103;-71
2022/11/26 07:58:56;;;;;;;93.63;24.38;;;4.80;99.90;;;;;;5029809;28;20044;-69
2022/11/26 08:01:28;;;;;;;61.65;22.20;;;4.80;99.90;;;;;;5035450;28;20040;-69
2022/11/26 08:03:55;;;;;;;75.88;22.00;;;4.90;99.90;;;;;;5048127;28;20045;-67
2022/11/26 08:06:24;;;;;;;91.25;25.27;;;4.90;99.90;;;;;;5053489;28;20407;-67
2022/11/26 08:08:50;;;;;;;78.35;23.10;;;5.00;99.90;;;;;;5048171;28;20047;-65
2022/11/26 08:11:27;;;;;;;78.55;23.48;;;5.00;99.90;;;;;;5051780;28;20037;-66
2022/11/26 08:14:04;;;;;;;96.65;24.75;;;5.00;99.90;;;;;;5058910;22;20136;-60
2022/11/26 08:16:30;;;;;;;71.63;22.27;;;5.10;99.90;;;;;;5020721;28;20045;-63
2022/11/26 08:18:58;;;;;;;71.88;22.15;;;5.10;99.90;;;;;;5024068;28;20037;-62
2022/11/26 08:21:24;;;;;;;67.68;22.17;;;5.10;99.90;;;;;;5032600;28;20454;-62
2022/11/26 08:23:51;;;;;;;59.80;22.23;;;5.10;99.90;;;;;;5052002;28;20033;-62
2022/11/26 08:26:17;;;;;;;61.17;24.10;;;5.10;99.90;;;;;;5029400;28;20480;-63
2022/11/26 08:28:44;;;;;;;62.50;24.42;;;5.20;99.90;;;;;;5024170;28;20084;-63
2022/11/26 08:31:11;;;;;;;67.15;22.92;;;5.20;99.90;;;;;;5032387;28;20045;-63
2022/11/26 08:33:37;;;;;;;62.85;23.00;;;5.30;99.90;;;;;;5027057;28;20033;-63
2022/11/26 08:36:03;;;;;;;70.05;25.98;;;5.40;99.90;;;;;;5010658;28;20045;-63
2022/11/26 08:38:29;;;;;;;72.43;26.48;;;5.50;99.90;;;;;;5028028;28;20037;-63
2022/11/26 08:41:03;;;;;;;81.65;25.75;;;5.50;99.90;;;;;;5019915;28;20087;-64
2022/11/26 08:43:28;;;;;;;80.93;25.70;;;5.60;99.90;;;;;;5031834;28;20103;-63
2022/11/26 08:45:56;;;;;;;72.78;25.30;;;5.50;99.90;;;;;;5026077;28;20037;-62
2022/11/26 08:48:22;;;;;;;72.28;25.38;;;5.60;99.90;;;;;;5028722;28;20444;-63
2022/11/26 08:50:48;;;;;;;78.53;27.35;;;5.60;99.90;;;;;;5022212;28;20091;-64
2022/11/26 08:53:14;;;;;;;74.53;26.30;;;5.60;99.90;;;;;;5025260;28;20073;-64
2022/11/26 08:55:39;;;;;;;76.32;27.73;;;5.70;99.90;;;;;;5030870;28;20518;-64
2022/11/26 08:58:05;;;;;;;68.45;26.15;;;5.80;99.90;;;;;;5031860;28;20041;-63
2022/11/26 09:00:31;;;;;;;66.97;24.48;;;5.70;99.90;;;;;;5003924;28;20595;-64
2022/11/26 09:02:56;;;;;;;98.38;29.02;;;5.80;99.90;;;;;;5030359;28;20038;-63
2022/11/26 09:05:22;;;;;;;72.40;25.70;;;5.80;99.90;;;;;;5031896;28;20033;-64
2022/11/26 09:07:47;;;;;;;91.60;26.45;;;5.90;99.90;;;;;;5028289;28;20037;-64
2022/11/26 09:10:13;;;;;;;105.03;27.98;;;6.00;99.90;;;;;;5031921;28;20484;-64
2022/11/26 09:12:39;;;;;;;99.80;29.13;;;6.10;99.90;;;;;;5030823;28;20495;-63
2022/11/26 09:15:05;;;;;;;106.38;29.13;;;6.10;99.90;;;;;;5032044;28;20041;-63
2022/11/26 09:17:31;;;;;;;117.15;29.45;;;6.20;99.90;;;;;;4993235;28;20081;-63
2022/11/26 09:19:56;;;;;;;106.75;27.90;;;6.20;99.90;;;;;;5013883;28;20646;-64
2022/11/26 09:22:22;;;;;;;118.88;31.95;;;6.20;99.90;;;;;;5031833;28;20042;-64
2022/11/26 09:24:48;;;;;;;106.50;28.55;;;6.30;99.90;;;;;;5027450;28;20042;-64
2022/11/26 09:27:14;;;;;;;121.85;30.42;;;6.30;99.90;;;;;;5031480;28;20048;-64
2022/11/26 09:29:39;;;;;;;105.65;31.77;;;6.30;99.90;;;;;;5031853;28;20112;-64
2022/11/26 09:32:08;;;;;;;94.55;29.13;;;6.30;99.90;;;;;;5014304;28;20041;-64
2022/11/26 09:34:33;;;;;;;122.78;32.08;;;6.40;99.90;;;;;;5016551;28;20042;-63
2022/11/26 09:36:59;;;;;;;111.93;29.95;;;6.30;99.90;;;;;;5025804;28;20141;-64
2022/11/26 09:39:25;;;;;;;114.68;31.55;;;6.40;99.90;;;;;;5031945;28;20056;-64
2022/11/26 09:42:07;;;;;;;96.47;29.08;;;6.50;99.90;;;;;;5027412;28;20072;-65
2022/11/26 09:44:42;;;;;;;96.88;31.50;;;6.50;99.90;;;;;;5010802;28;20044;-64
2022/11/26 09:47:08;;;;;;;106.55;29.75;;;6.50;99.90;;;;;;5031726;28;20492;-63
2022/11/26 09:49:38;;;;;;;118.80;33.67;;;6.50;99.90;;;;;;5006642;28;20129;-64
2022/11/26 09:52:08;;;;;;;109.70;32.05;;;6.60;99.90;;;;;;5026533;28;20565;-64
2022/11/26 09:54:35;;;;;;;112.93;32.40;;;6.60;99.90;;;;;;5031285;28;20076;-64
2022/11/26 09:57:26;;;;;;;121.25;35.22;;;6.70;99.90;;;;;;5025250;28;20110;-64
2022/11/26 09:59:54;;;;;;;105.40;31.33;;;6.70;99.90;;;;;;5022704;28;20765;-64
2022/11/26 10:02:20;;;;;;;117.20;36.38;;;6.80;99.90;;;;;;5013353;28;20084;-64
2022/11/26 10:04:47;;;;;;;121.70;35.45;;;6.80;99.90;;;;;;5011000;28;20488;-64
2022/11/26 10:07:47;;;;;;;124.35;33.50;;;6.80;99.90;;;;;;5030558;28;20041;-63
2022/11/26 10:10:34;;;;;;;140.95;36.55;;;6.90;99.90;;;;;;5025406;28;20069;-64
2022/11/26 10:13:19;;;;;;;130.48;35.83;;;6.90;99.90;;;;;;5023500;28;20108;-63
2022/11/26 10:16:07;;;;;;;127.68;36.25;;;7.00;99.90;;;;;;5020010;28;20065;-64
2022/11/26 10:18:57;;;;;;;134.25;38.15;;;7.00;99.90;;;;;;5030624;28;20060;-63
2022/11/26 10:21:48;;;;;;;114.93;32.38;;;7.00;99.90;;;;;;5031201;28;20408;-64
2022/11/26 10:24:37;;;;;;;131.18;35.33;;;7.00;99.90;;;;;;5028607;28;20049;-64
2022/11/26 10:27:19;;;;;;;121.60;34.97;;;7.10;99.90;;;;;;5027999;28;20057;-64
2022/11/26 10:29:54;;;;;;;124.53;35.90;;;7.10;99.90;;;;;;5035512;28;20502;-64
2022/11/26 10:32:24;;;;;;;109.80;32.92;;;7.10;99.90;;;;;;5031508;28;20042;-64
2022/11/26 10:34:56;;;;;;;122.25;34.67;;;7.20;99.90;;;;;;5027888;28;20053;-65
2022/11/26 10:37:24;;;;;;;127.13;35.92;;;7.20;99.90;;;;;;5031831;28;20045;-64
2022/11/26 10:40:06;;;;;;;114.25;35.75;;;7.30;99.90;;;;;;5034799;28;20718;-64
2022/11/26 10:42:38;;;;;;;;;;;7.30;99.90;;;;;;5034890;28;20037;-63
2022/11/26 10:45:20;;;;;;;114.53;32.58;;;7.30;99.90;;;;;;5030968;28;20524;-67
2022/11/26 10:47:46;;;;;;;112.63;33.83;;;7.30;99.90;;;;;;5003588;28;20554;-66
2022/11/26 10:50:20;;;;;;;115.85;35.17;;;7.40;99.90;;;;;;5003576;28;20080;-66
2022/11/26 10:52:46;;;;;;;115.50;32.88;;;7.40;99.90;;;;;;5034102;28;20047;-67
2022/11/26 10:55:32;;;;;;;114.25;33.78;;;7.40;99.90;;;;;;5031701;28;20052;-66
2022/11/26 10:58:06;;;;;;;115.40;32.53;;;7.50;99.90;;;;;;5029595;28;20042;-66
2022/11/26 11:00:38;;;;;;;112.78;33.58;;;7.60;99.90;;;;;;5034431;28;20041;-66
2022/11/26 11:03:13;;;;;;;106.38;33.67;;;7.70;99.90;;;;;;5034427;28;20053;-66
2022/11/26 11:05:41;;;;;;;111.68;33.85;;;7.70;99.90;;;;;;5010937;28;20041;-66
2022/11/26 11:08:27;;;;;;;111.75;33.42;;;7.70;99.90;;;;;;5021495;28;20083;-66
2022/11/26 11:10:55;;;;;;;95.80;31.60;;;7.80;99.90;;;;;;5054200;28;20045;-66
2022/11/26 11:13:23;;;;;;;106.32;32.50;;;7.80;99.90;;;;;;5016621;28;20124;-66
2022/11/26 11:15:59;;;;;;;104.72;31.38;;;7.90;99.90;;;;;;5026293;28;20045;-66
2022/11/26 11:18:25;;;;;;;109.85;32.88;;;7.90;99.90;;;;;;5016605;28;20061;-66
2022/11/26 11:21:00;;;;;;;107.38;32.03;;;8.10;99.90;;;;;;5012372;28;20029;-66
2022/11/26 11:23:29;;;;;;;96.45;32.20;;;8.10;99.90;;;;;;5025122;28;20046;-66
2022/11/26 11:26:05;;;;;;;100.68;32.20;;;8.10;99.90;;;;;;5033802;28;20037;-67
2022/11/26 11:28:33;;;;;;;98.65;32.30;;;8.20;99.90;;;;;;5033940;28;20543;-66
2022/11/26 11:31:03;;;;;;;100.57;31.38;;;8.30;99.90;;;;;;5022235;28;20045;-66
2022/11/26 11:33:29;;;;;;;93.28;31.88;;;8.40;99.90;;;;;;5025171;28;20052;-70
2022/11/26 11:35:59;;;;;;;92.53;29.90;;;8.40;99.90;;;;;;5007013;28;20431;-68
2022/11/26 11:38:27;;;;;;;90.50;30.35;;;8.50;99.90;;;;;;5004697;28;20050;-67
2022/11/26 11:40:53;;;;;;;86.60;29.25;;;8.50;99.90;;;;;;5025053;28;20034;-67
2022/11/26 11:43:21;;;;;;;94.55;29.80;;;8.50;99.90;;;;;;5015753;28;20086;-68
2022/11/26 11:46:17;;;;;;;90.15;30.63;;;8.50;99.90;;;;;;5033601;28;20112;-68
2022/11/26 11:48:46;;;;;;;87.75;28.80;;;8.50;99.90;;;;;;5027201;28;20400;-67
2022/11/26 11:51:27;;;;;;;84.20;28.75;;;8.60;99.90;;;;;;5009469;28;20451;-68
2022/11/26 11:54:19;;;;;;;79.83;28.53;;;8.50;99.90;;;;;;5009957;28;20045;-67
2022/11/26 11:57:13;;;;;;;72.45;27.25;;;8.60;99.90;;;;;;5029862;28;20103;-67
2022/11/26 11:59:57;;;;;;;76.35;28.92;;;8.60;99.90;;;;;;5015925;28;20107;-66
2022/11/26 12:02:36;;;;;;;85.63;29.20;;;8.60;99.90;;;;;;5025708;28;20092;-67
2022/11/26 12:05:36;;;;;;;80.65;29.50;;;8.60;99.90;;;;;;5028846;28;20079;-66
2022/11/26 12:08:20;;;;;;;70.05;27.17;;;8.70;99.90;;;;;;5013795;28;20049;-66
2022/11/26 12:11:15;;;;;;;75.18;27.23;;;8.70;99.90;;;;;;5015659;28;20029;-67
2022/11/26 12:13:57;;;;;;;66.82;27.70;;;8.70;99.90;;;;;;5025989;28;20414;-69
2022/11/26 12:16:24;;;;;;;;;;;8.60;99.90;;;;;;5033417;28;20041;-68
2022/11/26 12:19:05;;;;;;;69.00;24.75;;;8.60;99.90;;;;;;5033199;28;19921;-67
2022/11/26 12:21:40;;;;;;;65.43;25.95;;;8.60;99.90;;;;;;4995705;28;20092;-67
2022/11/26 12:24:21;;;;;;;66.32;25.38;;;8.70;99.90;;;;;;5026123;28;20099;-67
2022/11/26 12:26:54;;;;;;;63.65;24.83;;;8.70;99.90;;;;;;5027979;28;20537;-67
2022/11/26 12:29:41;;;;;;;68.53;26.17;;;8.70;99.90;;;;;;5025548;28;20037;-67
2022/11/26 12:32:30;;;;;;;62.55;24.52;;;8.60;99.90;;;;;;5025969;28;20029;-67
2022/11/26 12:35:01;;;;;;;64.30;25.67;;;8.70;99.90;;;;;;5010338;28;20040;-67
2022/11/26 12:37:31;;;;;;;60.45;23.60;;;8.70;99.90;;;;;;5026001;28;20037;-68
2022/11/26 12:40:03;;;;;;;62.97;24.30;;;8.70;99.90;;;;;;5006689;28;20042;-67
2022/11/26 12:42:56;;;;;;;58.13;24.52;;;8.70;99.90;;;;;;5004396;28;20533;-66
2022/11/26 12:45:45;;;;;;;54.65;22.77;;;8.80;99.90;;;;;;5017838;28;20073;-67
2022/11/26 12:48:23;;;;;;;55.28;23.77;;;8.80;99.90;;;;;;5026313;28;20108;-68